sensor_id;sensor_type;location;lat;lon;timestamp;temperature;humidity
9919;DHT22;4998;51.024;13.828;2023-03-21T00:01:55;14.30;94.90
9919;DHT22;4998;51.024;13.828;2023-03-21T00:04:23;14.30;94.80
9919;DHT22;4998;51.024;13.828;2023-03-21T00:06:51;14.30;94.90
9919;DHT22;4998;51.024;13.828;2023-03-21T00:09:19;14.30;94.80
9919;DHT22;4998;51.024;13.828;2023-03-21T00:11:47;14.30;94.90
9919;DHT22;4998;51.024;13.828;2023-03-21T00:14:14;14.30;94.90
9919;DHT22;4998;51.024;13.828;2023-03-21T00:16:44;14.30;94.90
9919;DHT22;4998;51.024;13.828;2023-03-21T00:19:15;14.30;94.90
9919;DHT22;4998;51.024;13.828;2023-03-21T00:21:42;14.30;94.90
9919;DHT22;4998;51.024;13.828;2023-03-21T00:24:10;14.30;95.00
9919;DHT22;4998;51.024;13.828;2023-03-21T00:26:37;14.30;95.00
9919;DHT22;4998;51.024;13.828;2023-03-21T00:29:05;14.30;95.00
9919;DHT22;4998;51.024;13.828;2023-03-21T00:31:32;14.30;95.20
9919;DHT22;4998;51.024;13.828;2023-03-21T00:34:00;14.30;95.10
9919;DHT22;4998;51.024;13.828;2023-03-21T00:36:27;14.30;95.10
9919;DHT22;4998;51.024;13.828;2023-03-21T00:38:54;14.30;95.10
9919;DHT22;4998;51.024;13.828;2023-03-21T00:41:21;14.30;95.20
9919;DHT22;4998;51.024;13.828;2023-03-21T00:43:48;14.30;95.20
9919;DHT22;4998;51.024;13.828;2023-03-21T00:46:17;14.30;95.10
9919;DHT22;4998;51.024;13.828;2023-03-21T00:48:44;14.30;95.10
9919;DHT22;4998;51.024;13.828;2023-03-21T00:51:13;14.20;95.00
9919;DHT22;4998;51.024;13.828;2023-03-21T00:53:46;14.20;95.00
9919;DHT22;4998;51.024;13.828;2023-03-21T00:56:13;14.20;95.30
9919;DHT22;4998;51.024;13.828;2023-03-21T00:58:40;14.20;95.00
9919;DHT22;4998;51.024;13.828;2023-03-21T01:01:07;14.20;95.00
9919;DHT22;4998;51.024;13.828;2023-03-21T01:03:35;14.20;95.10
9919;DHT22;4998;51.024;13.828;2023-03-21T01:06:09;14.10;95.20
9919;DHT22;4998;51.024;13.828;2023-03-21T01:08:39;14.10;95.20
9919;DHT22;4998;51.024;13.828;2023-03-21T01:11:09;14.10;95.20
9919;DHT22;4998;51.024;13.828;2023-03-21T01:13:37;14.10;95.20
9919;DHT22;4998;51.024;13.828;2023-03-21T01:16:05;14.10;95.10
9919;DHT22;4998;51.024;13.828;2023-03-21T01:18:36;14.00;95.00
9919;DHT22;4998;51.024;13.828;2023-03-21T01:21:06;14.00;94.80
9919;DHT22;4998;51.024;13.828;2023-03-21T01:23:34;13.90;94.80
9919;DHT22;4998;51.024;13.828;2023-03-21T01:26:01;13.90;94.70
9919;DHT22;4998;51.024;13.828;2023-03-21T01:28:29;13.80;94.70
9919;DHT22;4998;51.024;13.828;2023-03-21T01:30:59;13.70;94.80
9919;DHT22;4998;51.024;13.828;2023-03-21T01:33:26;13.60;95.00
9919;DHT22;4998;51.024;13.828;2023-03-21T01:35:54;13.60;95.00
9919;DHT22;4998;51.024;13.828;2023-03-21T01:38:21;13.50;95.10
9919;DHT22;4998;51.024;13.828;2023-03-21T01:40:49;13.50;95.10
9919;DHT22;4998;51.024;13.828;2023-03-21T01:43:24;13.50;95.20
9919;DHT22;4998;51.024;13.828;2023-03-21T01:48:58;13.40;95.20
9919;DHT22;4998;51.024;13.828;2023-03-21T01:51:28;13.40;94.90
9919;DHT22;4998;51.024;13.828;2023-03-21T01:53:56;13.40;94.80
9919;DHT22;4998;51.024;13.828;2023-03-21T01:56:28;13.30;94.70
9919;DHT22;4998;51.024;13.828;2023-03-21T01:58:59;13.30;94.70
9919;DHT22;4998;51.024;13.828;2023-03-21T02:01:29;13.20;94.60
9919;DHT22;4998;51.024;13.828;2023-03-21T02:04:00;13.20;94.50
9919;DHT22;4998;51.024;13.828;2023-03-21T02:06:37;13.10;94.50
9919;DHT22;4998;51.024;13.828;2023-03-21T02:09:08;13.10;94.60
9919;DHT22;4998;51.024;13.828;2023-03-21T02:11:37;13.00;94.60
9919;DHT22;4998;51.024;13.828;2023-03-21T02:14:04;13.00;94.60
9919;DHT22;4998;51.024;13.828;2023-03-21T02:16:45;13.00;94.70
9919;DHT22;4998;51.024;13.828;2023-03-21T02:19:37;13.00;94.80
9919;DHT22;4998;51.024;13.828;2023-03-21T02:28:25;12.90;94.60
9919;DHT22;4998;51.024;13.828;2023-03-21T02:31:21;12.90;94.50
9919;DHT22;4998;51.024;13.828;2023-03-21T02:34:43;12.90;94.50
9919;DHT22;4998;51.024;13.828;2023-03-21T02:37:18;12.90;94.60
9919;DHT22;4998;51.024;13.828;2023-03-21T02:39:59;12.90;94.60
9919;DHT22;4998;51.024;13.828;2023-03-21T02:42:46;12.90;94.70
9919;DHT22;4998;51.024;13.828;2023-03-21T02:45:17;12.90;94.70
9919;DHT22;4998;51.024;13.828;2023-03-21T02:47:47;12.90;94.70
9919;DHT22;4998;51.024;13.828;2023-03-21T02:50:20;13.00;94.80
9919;DHT22;4998;51.024;13.828;2023-03-21T02:52:51;13.00;94.80
9919;DHT22;4998;51.024;13.828;2023-03-21T02:55:22;13.00;94.80
9919;DHT22;4998;51.024;13.828;2023-03-21T02:57:51;13.00;94.70
9919;DHT22;4998;51.024;13.828;2023-03-21T03:00:21;13.10;94.70
9919;DHT22;4998;51.024;13.828;2023-03-21T03:02:49;13.10;94.70
9919;DHT22;4998;51.024;13.828;2023-03-21T03:05:18;13.10;94.50
9919;DHT22;4998;51.024;13.828;2023-03-21T03:08:08;13.10;94.60
9919;DHT22;4998;51.024;13.828;2023-03-21T03:10:48;13.00;94.60
9919;DHT22;4998;51.024;13.828;2023-03-21T03:13:32;13.00;94.50
9919;DHT22;4998;51.024;13.828;2023-03-21T03:16:09;13.00;94.40
9919;DHT22;4998;51.024;13.828;2023-03-21T03:18:46;13.00;94.30
9919;DHT22;4998;51.024;13.828;2023-03-21T03:21:19;13.00;94.00
9919;DHT22;4998;51.024;13.828;2023-03-21T03:23:51;12.90;93.70
9919;DHT22;4998;51.024;13.828;2023-03-21T03:26:24;12.80;93.50
9919;DHT22;4998;51.024;13.828;2023-03-21T03:28:57;12.80;93.30
9919;DHT22;4998;51.024;13.828;2023-03-21T03:31:28;12.70;93.10
9919;DHT22;4998;51.024;13.828;2023-03-21T03:33:59;12.60;93.20
9919;DHT22;4998;51.024;13.828;2023-03-21T03:36:30;12.50;93.20
9919;DHT22;4998;51.024;13.828;2023-03-21T03:39:04;12.50;93.20
9919;DHT22;4998;51.024;13.828;2023-03-21T03:41:37;12.50;93.20
9919;DHT22;4998;51.024;13.828;2023-03-21T03:44:06;12.40;93.30
9919;DHT22;4998;51.024;13.828;2023-03-21T03:46:37;12.40;93.40
9919;DHT22;4998;51.024;13.828;2023-03-21T03:49:09;12.40;93.50
9919;DHT22;4998;51.024;13.828;2023-03-21T03:51:43;12.40;93.60
9919;DHT22;4998;51.024;13.828;2023-03-21T03:54:19;12.40;93.80
9919;DHT22;4998;51.024;13.828;2023-03-21T03:56:47;12.40;93.90
9919;DHT22;4998;51.024;13.828;2023-03-21T03:59:15;12.40;93.90
9919;DHT22;4998;51.024;13.828;2023-03-21T04:01:44;12.50;94.00
9919;DHT22;4998;51.024;13.828;2023-03-21T04:04:11;12.50;94.10
9919;DHT22;4998;51.024;13.828;2023-03-21T04:06:41;12.50;94.10
9919;DHT22;4998;51.024;13.828;2023-03-21T04:09:10;12.50;94.20
9919;DHT22;4998;51.024;13.828;2023-03-21T04:11:39;12.50;94.20
9919;DHT22;4998;51.024;13.828;2023-03-21T04:14:07;12.60;94.30
9919;DHT22;4998;51.024;13.828;2023-03-21T04:16:34;12.60;94.20
9919;DHT22;4998;51.024;13.828;2023-03-21T04:19:01;12.60;94.30
9919;DHT22;4998;51.024;13.828;2023-03-21T04:21:28;12.60;94.30
9919;DHT22;4998;51.024;13.828;2023-03-21T04:23:56;12.60;94.30
9919;DHT22;4998;51.024;13.828;2023-03-21T04:26:23;12.60;94.30
9919;DHT22;4998;51.024;13.828;2023-03-21T04:28:51;12.60;94.30
9919;DHT22;4998;51.024;13.828;2023-03-21T04:31:18;12.60;94.30
9919;DHT22;4998;51.024;13.828;2023-03-21T04:33:45;12.60;94.30
9919;DHT22;4998;51.024;13.828;2023-03-21T04:36:12;12.60;94.30
9919;DHT22;4998;51.024;13.828;2023-03-21T04:38:49;12.60;94.30
9919;DHT22;4998;51.024;13.828;2023-03-21T04:41:17;12.60;94.30
9919;DHT22;4998;51.024;13.828;2023-03-21T04:43:44;12.60;94.30
9919;DHT22;4998;51.024;13.828;2023-03-21T04:46:13;12.60;94.30
9919;DHT22;4998;51.024;13.828;2023-03-21T04:48:40;12.60;94.30
9919;DHT22;4998;51.024;13.828;2023-03-21T04:51:07;12.60;94.20
9919;DHT22;4998;51.024;13.828;2023-03-21T04:53:34;12.60;94.30
9919;DHT22;4998;51.024;13.828;2023-03-21T04:56:03;12.60;94.30
9919;DHT22;4998;51.024;13.828;2023-03-21T04:58:30;12.60;94.20
9919;DHT22;4998;51.024;13.828;2023-03-21T05:00:57;12.60;94.00
9919;DHT22;4998;51.024;13.828;2023-03-21T05:03:25;12.50;93.80
9919;DHT22;4998;51.024;13.828;2023-03-21T05:05:54;12.50;93.80
9919;DHT22;4998;51.024;13.828;2023-03-21T05:08:22;12.50;93.80
9919;DHT22;4998;51.024;13.828;2023-03-21T05:10:48;12.50;93.90
9919;DHT22;4998;51.024;13.828;2023-03-21T05:13:15;12.50;94.00
9919;DHT22;4998;51.024;13.828;2023-03-21T05:15:43;12.40;93.90
9919;DHT22;4998;51.024;13.828;2023-03-21T05:18:10;12.40;94.00
9919;DHT22;4998;51.024;13.828;2023-03-21T05:20:39;12.40;94.00
9919;DHT22;4998;51.024;13.828;2023-03-21T05:23:08;12.50;94.20
9919;DHT22;4998;51.024;13.828;2023-03-21T05:25:36;12.50;94.20
9919;DHT22;4998;51.024;13.828;2023-03-21T05:28:04;12.50;94.20
9919;DHT22;4998;51.024;13.828;2023-03-21T05:30:32;12.50;94.30
9919;DHT22;4998;51.024;13.828;2023-03-21T05:33:00;12.50;94.30
9919;DHT22;4998;51.024;13.828;2023-03-21T05:35:27;12.50;94.30
9919;DHT22;4998;51.024;13.828;2023-03-21T05:37:55;12.50;94.30
9919;DHT22;4998;51.024;13.828;2023-03-21T05:40:22;12.60;94.40
9919;DHT22;4998;51.024;13.828;2023-03-21T05:42:49;12.60;94.40
9919;DHT22;4998;51.024;13.828;2023-03-21T05:45:16;12.60;94.40
9919;DHT22;4998;51.024;13.828;2023-03-21T05:47:43;12.70;94.30
9919;DHT22;4998;51.024;13.828;2023-03-21T05:50:11;12.70;94.20
9919;DHT22;4998;51.024;13.828;2023-03-21T05:52:39;12.80;94.10
9919;DHT22;4998;51.024;13.828;2023-03-21T05:55:08;12.70;93.90
9919;DHT22;4998;51.024;13.828;2023-03-21T05:57:35;12.80;94.00
9919;DHT22;4998;51.024;13.828;2023-03-21T06:00:07;12.80;93.90
9919;DHT22;4998;51.024;13.828;2023-03-21T06:02:34;12.80;93.80
9919;DHT22;4998;51.024;13.828;2023-03-21T06:05:01;12.80;93.80
9919;DHT22;4998;51.024;13.828;2023-03-21T06:07:28;12.80;93.70
9919;DHT22;4998;51.024;13.828;2023-03-21T06:09:55;12.80;93.70
9919;DHT22;4998;51.024;13.828;2023-03-21T06:12:24;12.90;93.80
9919;DHT22;4998;51.024;13.828;2023-03-21T06:14:51;12.90;93.70
9919;DHT22;4998;51.024;13.828;2023-03-21T06:17:18;12.90;93.60
9919;DHT22;4998;51.024;13.828;2023-03-21T06:19:45;12.90;93.40
9919;DHT22;4998;51.024;13.828;2023-03-21T06:22:12;12.90;93.30
9919;DHT22;4998;51.024;13.828;2023-03-21T06:24:39;12.90;93.50
9919;DHT22;4998;51.024;13.828;2023-03-21T06:27:06;12.90;93.60
9919;DHT22;4998;51.024;13.828;2023-03-21T06:29:35;12.90;93.70
9919;DHT22;4998;51.024;13.828;2023-03-21T06:32:02;12.90;93.70
9919;DHT22;4998;51.024;13.828;2023-03-21T06:34:29;12.90;93.60
9919;DHT22;4998;51.024;13.828;2023-03-21T06:36:56;13.00;93.70
9919;DHT22;4998;51.024;13.828;2023-03-21T06:39:23;13.00;93.60
9919;DHT22;4998;51.024;13.828;2023-03-21T06:41:50;13.00;93.60
9919;DHT22;4998;51.024;13.828;2023-03-21T06:44:17;13.10;93.50
9919;DHT22;4998;51.024;13.828;2023-03-21T06:46:45;13.10;93.20
9919;DHT22;4998;51.024;13.828;2023-03-21T06:49:12;13.10;93.10
9919;DHT22;4998;51.024;13.828;2023-03-21T06:51:39;13.10;93.00
9919;DHT22;4998;51.024;13.828;2023-03-21T06:54:06;13.10;93.00
9919;DHT22;4998;51.024;13.828;2023-03-21T06:56:33;13.10;93.00
9919;DHT22;4998;51.024;13.828;2023-03-21T06:59:00;13.10;93.00
9919;DHT22;4998;51.024;13.828;2023-03-21T07:01:27;13.10;92.90
9919;DHT22;4998;51.024;13.828;2023-03-21T07:03:57;13.10;92.80
9919;DHT22;4998;51.024;13.828;2023-03-21T07:06:24;13.10;92.80
9919;DHT22;4998;51.024;13.828;2023-03-21T07:08:52;13.10;92.90
9919;DHT22;4998;51.024;13.828;2023-03-21T07:11:20;13.10;92.80
9919;DHT22;4998;51.024;13.828;2023-03-21T07:13:48;13.10;92.60
9919;DHT22;4998;51.024;13.828;2023-03-21T07:16:16;13.10;92.60
9919;DHT22;4998;51.024;13.828;2023-03-21T07:18:43;13.10;92.50
9919;DHT22;4998;51.024;13.828;2023-03-21T07:21:12;13.10;92.40
9919;DHT22;4998;51.024;13.828;2023-03-21T07:23:40;13.10;92.50
9919;DHT22;4998;51.024;13.828;2023-03-21T07:26:07;13.10;92.50
9919;DHT22;4998;51.024;13.828;2023-03-21T07:28:34;13.10;92.50
9919;DHT22;4998;51.024;13.828;2023-03-21T07:31:03;13.20;92.60
9919;DHT22;4998;51.024;13.828;2023-03-21T07:33:31;13.20;92.50
9919;DHT22;4998;51.024;13.828;2023-03-21T07:35:59;13.30;92.50
9919;DHT22;4998;51.024;13.828;2023-03-21T07:38:27;13.20;92.40
9919;DHT22;4998;51.024;13.828;2023-03-21T07:40:58;13.30;92.50
9919;DHT22;4998;51.024;13.828;2023-03-21T07:43:25;13.30;92.60
9919;DHT22;4998;51.024;13.828;2023-03-21T07:45:56;13.30;93.00
9919;DHT22;4998;51.024;13.828;2023-03-21T07:48:23;13.30;92.70
9919;DHT22;4998;51.024;13.828;2023-03-21T07:50:50;13.40;92.70
9919;DHT22;4998;51.024;13.828;2023-03-21T07:53:19;13.40;92.80
9919;DHT22;4998;51.024;13.828;2023-03-21T07:55:50;13.50;92.70
9919;DHT22;4998;51.024;13.828;2023-03-21T07:58:17;13.50;92.60
9919;DHT22;4998;51.024;13.828;2023-03-21T08:00:44;13.60;92.60
9919;DHT22;4998;51.024;13.828;2023-03-21T08:03:11;13.60;92.40
9919;DHT22;4998;51.024;13.828;2023-03-21T08:05:39;13.60;92.20
9919;DHT22;4998;51.024;13.828;2023-03-21T08:08:06;13.60;92.00
9919;DHT22;4998;51.024;13.828;2023-03-21T08:10:34;13.60;92.00
9919;DHT22;4998;51.024;13.828;2023-03-21T08:13:03;13.60;92.10
9919;DHT22;4998;51.024;13.828;2023-03-21T08:15:30;13.60;92.10
9919;DHT22;4998;51.024;13.828;2023-03-21T08:17:58;13.60;92.20
9919;DHT22;4998;51.024;13.828;2023-03-21T08:20:25;13.60;92.10
9919;DHT22;4998;51.024;13.828;2023-03-21T08:22:52;13.60;92.30
9919;DHT22;4998;51.024;13.828;2023-03-21T08:25:20;13.70;92.30
9919;DHT22;4998;51.024;13.828;2023-03-21T08:27:48;13.70;92.30
9919;DHT22;4998;51.024;13.828;2023-03-21T08:30:18;13.80;92.20
9919;DHT22;4998;51.024;13.828;2023-03-21T08:32:46;13.90;92.10
9919;DHT22;4998;51.024;13.828;2023-03-21T08:35:15;13.90;92.10
9919;DHT22;4998;51.024;13.828;2023-03-21T08:37:43;14.00;92.10
9919;DHT22;4998;51.024;13.828;2023-03-21T08:40:13;14.10;92.30
9919;DHT22;4998;51.024;13.828;2023-03-21T08:42:41;14.20;92.20
9919;DHT22;4998;51.024;13.828;2023-03-21T08:45:09;14.20;92.10
9919;DHT22;4998;51.024;13.828;2023-03-21T08:47:38;14.30;92.20
9919;DHT22;4998;51.024;13.828;2023-03-21T08:50:08;14.50;92.00
9919;DHT22;4998;51.024;13.828;2023-03-21T08:52:37;14.50;91.70
9919;DHT22;4998;51.024;13.828;2023-03-21T08:55:04;14.60;91.70
9919;DHT22;4998;51.024;13.828;2023-03-21T08:57:32;14.70;91.60
9919;DHT22;4998;51.024;13.828;2023-03-21T08:59:59;14.70;91.50
9919;DHT22;4998;51.024;13.828;2023-03-21T09:02:26;14.80;91.50
9919;DHT22;4998;51.024;13.828;2023-03-21T09:04:54;14.90;91.30
9919;DHT22;4998;51.024;13.828;2023-03-21T09:07:23;14.90;91.00
9919;DHT22;4998;51.024;13.828;2023-03-21T09:09:52;15.00;90.90
9919;DHT22;4998;51.024;13.828;2023-03-21T09:12:19;15.10;90.70
9919;DHT22;4998;51.024;13.828;2023-03-21T09:14:46;15.10;90.60
9919;DHT22;4998;51.024;13.828;2023-03-21T09:17:14;15.10;90.60
9919;DHT22;4998;51.024;13.828;2023-03-21T09:19:41;15.10;90.60
9919;DHT22;4998;51.024;13.828;2023-03-21T09:22:10;15.20;90.50
9919;DHT22;4998;51.024;13.828;2023-03-21T09:24:42;15.20;90.20
9919;DHT22;4998;51.024;13.828;2023-03-21T09:27:12;15.30;90.00
9919;DHT22;4998;51.024;13.828;2023-03-21T09:29:40;15.30;89.90
9919;DHT22;4998;51.024;13.828;2023-03-21T09:32:09;15.30;89.90
9919;DHT22;4998;51.024;13.828;2023-03-21T09:34:38;15.40;90.00
9919;DHT22;4998;51.024;13.828;2023-03-21T09:37:05;15.40;90.00
9919;DHT22;4998;51.024;13.828;2023-03-21T09:39:39;15.50;90.00
9919;DHT22;4998;51.024;13.828;2023-03-21T09:42:15;15.50;89.40
9919;DHT22;4998;51.024;13.828;2023-03-21T09:45:00;15.60;89.70
9919;DHT22;4998;51.024;13.828;2023-03-21T09:47:34;15.70;90.10
9919;DHT22;4998;51.024;13.828;2023-03-21T09:50:13;15.80;89.70
9919;DHT22;4998;51.024;13.828;2023-03-21T09:52:46;15.90;88.80
9919;DHT22;4998;51.024;13.828;2023-03-21T09:55:20;15.90;88.50
9919;DHT22;4998;51.024;13.828;2023-03-21T09:57:53;15.90;88.00
9919;DHT22;4998;51.024;13.828;2023-03-21T10:00:26;15.90;87.90
9919;DHT22;4998;51.024;13.828;2023-03-21T10:02:56;16.00;87.80
9919;DHT22;4998;51.024;13.828;2023-03-21T10:05:30;16.00;87.60
9919;DHT22;4998;51.024;13.828;2023-03-21T10:08:01;16.00;87.50
9919;DHT22;4998;51.024;13.828;2023-03-21T10:10:35;16.00;87.70
9919;DHT22;4998;51.024;13.828;2023-03-21T10:13:04;16.10;87.80
9919;DHT22;4998;51.024;13.828;2023-03-21T10:15:36;16.20;88.00
9919;DHT22;4998;51.024;13.828;2023-03-21T10:18:06;16.20;88.10
9919;DHT22;4998;51.024;13.828;2023-03-21T10:20:35;16.30;87.90
9919;DHT22;4998;51.024;13.828;2023-03-21T10:23:04;16.40;88.00
9919;DHT22;4998;51.024;13.828;2023-03-21T10:25:35;16.50;87.60
9919;DHT22;4998;51.024;13.828;2023-03-21T10:28:05;16.60;87.10
9919;DHT22;4998;51.024;13.828;2023-03-21T10:30:37;16.90;87.10
9919;DHT22;4998;51.024;13.828;2023-03-21T10:33:07;16.80;86.40
9919;DHT22;4998;51.024;13.828;2023-03-21T10:35:37;16.90;86.10
9919;DHT22;4998;51.024;13.828;2023-03-21T10:38:09;16.90;85.60
9919;DHT22;4998;51.024;13.828;2023-03-21T10:40:40;16.90;85.60
9919;DHT22;4998;51.024;13.828;2023-03-21T10:43:31;17.00;85.50
9919;DHT22;4998;51.024;13.828;2023-03-21T10:46:06;17.10;85.20
9919;DHT22;4998;51.024;13.828;2023-03-21T10:48:37;17.20;84.90
9919;DHT22;4998;51.024;13.828;2023-03-21T10:51:07;17.30;84.20
9919;DHT22;4998;51.024;13.828;2023-03-21T10:53:38;17.30;83.90
9919;DHT22;4998;51.024;13.828;2023-03-21T10:56:08;17.30;82.90
9919;DHT22;4998;51.024;13.828;2023-03-21T10:58:40;17.30;82.50
9919;DHT22;4998;51.024;13.828;2023-03-21T11:01:11;17.30;82.60
9919;DHT22;4998;51.024;13.828;2023-03-21T11:03:42;17.30;82.50
9919;DHT22;4998;51.024;13.828;2023-03-21T11:06:13;17.30;82.40
9919;DHT22;4998;51.024;13.828;2023-03-21T11:08:44;17.30;82.20
9919;DHT22;4998;51.024;13.828;2023-03-21T11:11:19;17.30;82.50
9919;DHT22;4998;51.024;13.828;2023-03-21T11:13:55;17.40;82.60
9919;DHT22;4998;51.024;13.828;2023-03-21T11:16:25;17.40;82.50
9919;DHT22;4998;51.024;13.828;2023-03-21T11:18:59;17.50;82.50
9919;DHT22;4998;51.024;13.828;2023-03-21T11:21:34;17.50;82.10
9919;DHT22;4998;51.024;13.828;2023-03-21T11:24:02;17.60;82.10
9919;DHT22;4998;51.024;13.828;2023-03-21T11:26:33;17.70;81.90
9919;DHT22;4998;51.024;13.828;2023-03-21T11:29:11;17.70;80.60
9919;DHT22;4998;51.024;13.828;2023-03-21T11:31:42;17.70;80.50
9919;DHT22;4998;51.024;13.828;2023-03-21T11:34:23;17.70;80.90
9919;DHT22;4998;51.024;13.828;2023-03-21T11:36:52;17.70;80.50
9919;DHT22;4998;51.024;13.828;2023-03-21T11:39:32;17.70;80.60
9919;DHT22;4998;51.024;13.828;2023-03-21T11:42:01;17.80;80.10
9919;DHT22;4998;51.024;13.828;2023-03-21T11:44:31;17.80;79.80
9919;DHT22;4998;51.024;13.828;2023-03-21T11:46:58;17.80;79.90
9919;DHT22;4998;51.024;13.828;2023-03-21T11:49:26;17.90;79.70
9919;DHT22;4998;51.024;13.828;2023-03-21T11:52:10;17.90;79.50
9919;DHT22;4998;51.024;13.828;2023-03-21T11:54:59;17.90;78.40
9919;DHT22;4998;51.024;13.828;2023-03-21T11:57:34;18.00;78.70
9919;DHT22;4998;51.024;13.828;2023-03-21T12:00:12;18.00;79.00
9919;DHT22;4998;51.024;13.828;2023-03-21T12:03:29;18.00;79.00
9919;DHT22;4998;51.024;13.828;2023-03-21T12:06:11;18.10;79.30
9919;DHT22;4998;51.024;13.828;2023-03-21T12:08:50;18.10;79.20
9919;DHT22;4998;51.024;13.828;2023-03-21T12:11:25;18.20;78.80
9919;DHT22;4998;51.024;13.828;2023-03-21T12:14:03;18.20;78.40
9919;DHT22;4998;51.024;13.828;2023-03-21T12:16:41;18.30;78.00
9919;DHT22;4998;51.024;13.828;2023-03-21T12:19:26;18.40;78.00
9919;DHT22;4998;51.024;13.828;2023-03-21T12:22:02;18.40;77.80
9919;DHT22;4998;51.024;13.828;2023-03-21T12:24:33;18.50;77.80
9919;DHT22;4998;51.024;13.828;2023-03-21T12:27:10;18.50;77.80
9919;DHT22;4998;51.024;13.828;2023-03-21T12:29:58;18.60;77.50
9919;DHT22;4998;51.024;13.828;2023-03-21T12:32:40;18.60;77.10
9919;DHT22;4998;51.024;13.828;2023-03-21T12:35:25;18.70;76.30
9919;DHT22;4998;51.024;13.828;2023-03-21T12:38:03;18.70;75.40
9919;DHT22;4998;51.024;13.828;2023-03-21T12:40:50;18.50;74.80
9919;DHT22;4998;51.024;13.828;2023-03-21T12:43:30;18.60;74.90
9919;DHT22;4998;51.024;13.828;2023-03-21T12:46:03;18.60;75.00
9919;DHT22;4998;51.024;13.828;2023-03-21T12:48:40;18.50;74.90
9919;DHT22;4998;51.024;13.828;2023-03-21T12:51:12;18.50;74.90
9919;DHT22;4998;51.024;13.828;2023-03-21T12:53:53;18.50;75.00
9919;DHT22;4998;51.024;13.828;2023-03-21T12:56:24;18.50;75.00
9919;DHT22;4998;51.024;13.828;2023-03-21T12:58:57;18.50;74.90
9919;DHT22;4998;51.024;13.828;2023-03-21T13:01:27;18.50;74.80
9919;DHT22;4998;51.024;13.828;2023-03-21T13:04:15;18.50;74.70
9919;DHT22;4998;51.024;13.828;2023-03-21T13:06:48;18.60;74.70
9919;DHT22;4998;51.024;13.828;2023-03-21T13:09:23;18.60;74.80
9919;DHT22;4998;51.024;13.828;2023-03-21T13:11:57;18.60;74.40
9919;DHT22;4998;51.024;13.828;2023-03-21T13:14:27;18.60;74.20
9919;DHT22;4998;51.024;13.828;2023-03-21T13:17:02;18.60;74.30
9919;DHT22;4998;51.024;13.828;2023-03-21T13:19:33;18.60;74.30
9919;DHT22;4998;51.024;13.828;2023-03-21T13:22:06;18.60;74.20
9919;DHT22;4998;51.024;13.828;2023-03-21T13:24:39;18.70;74.10
9919;DHT22;4998;51.024;13.828;2023-03-21T13:27:17;18.70;74.30
9919;DHT22;4998;51.024;13.828;2023-03-21T13:29:49;18.80;74.40
9919;DHT22;4998;51.024;13.828;2023-03-21T13:32:22;18.80;74.20
9919;DHT22;4998;51.024;13.828;2023-03-21T13:34:55;18.90;74.20
9919;DHT22;4998;51.024;13.828;2023-03-21T13:37:25;18.90;73.90
9919;DHT22;4998;51.024;13.828;2023-03-21T13:39:59;19.00;74.00
9919;DHT22;4998;51.024;13.828;2023-03-21T13:42:31;19.10;73.70
9919;DHT22;4998;51.024;13.828;2023-03-21T13:45:00;19.10;73.70
9919;DHT22;4998;51.024;13.828;2023-03-21T13:47:37;19.20;73.90
9919;DHT22;4998;51.024;13.828;2023-03-21T13:50:38;19.30;73.70
9919;DHT22;4998;51.024;13.828;2023-03-21T13:53:24;19.40;73.80
9919;DHT22;4998;51.024;13.828;2023-03-21T13:56:06;19.50;73.50
9919;DHT22;4998;51.024;13.828;2023-03-21T13:58:37;19.60;72.90
9919;DHT22;4998;51.024;13.828;2023-03-21T14:01:23;19.60;72.40
9919;DHT22;4998;51.024;13.828;2023-03-21T14:03:58;19.60;72.00
9919;DHT22;4998;51.024;13.828;2023-03-21T14:06:35;19.60;71.80
9919;DHT22;4998;51.024;13.828;2023-03-21T14:09:04;19.60;71.60
9919;DHT22;4998;51.024;13.828;2023-03-21T14:11:32;19.70;71.70
9919;DHT22;4998;51.024;13.828;2023-03-21T14:14:00;19.70;71.10
9919;DHT22;4998;51.024;13.828;2023-03-21T14:16:29;19.70;71.00
9919;DHT22;4998;51.024;13.828;2023-03-21T14:19:00;19.60;70.60
9919;DHT22;4998;51.024;13.828;2023-03-21T14:21:29;19.60;70.40
9919;DHT22;4998;51.024;13.828;2023-03-21T14:24:01;19.60;70.50
9919;DHT22;4998;51.024;13.828;2023-03-21T14:26:31;19.60;70.30
9919;DHT22;4998;51.024;13.828;2023-03-21T14:29:01;19.60;70.30
9919;DHT22;4998;51.024;13.828;2023-03-21T14:31:29;19.60;70.30
9919;DHT22;4998;51.024;13.828;2023-03-21T14:33:58;19.60;70.40
9919;DHT22;4998;51.024;13.828;2023-03-21T14:36:29;19.60;70.00
9919;DHT22;4998;51.024;13.828;2023-03-21T14:39:03;19.60;69.70
9919;DHT22;4998;51.024;13.828;2023-03-21T14:41:33;19.60;69.50
9919;DHT22;4998;51.024;13.828;2023-03-21T14:44:10;19.60;69.60
9919;DHT22;4998;51.024;13.828;2023-03-21T14:46:38;19.50;69.50
9919;DHT22;4998;51.024;13.828;2023-03-21T14:49:12;19.50;69.70
9919;DHT22;4998;51.024;13.828;2023-03-21T14:51:39;19.50;69.80
9919;DHT22;4998;51.024;13.828;2023-03-21T14:54:11;19.50;70.10
9919;DHT22;4998;51.024;13.828;2023-03-21T14:56:39;19.50;70.00
9919;DHT22;4998;51.024;13.828;2023-03-21T14:59:10;19.50;70.20
9919;DHT22;4998;51.024;13.828;2023-03-21T15:01:39;19.50;69.70
9919;DHT22;4998;51.024;13.828;2023-03-21T15:04:06;19.50;69.50
9919;DHT22;4998;51.024;13.828;2023-03-21T15:06:48;19.50;69.20
9919;DHT22;4998;51.024;13.828;2023-03-21T15:09:17;19.50;68.90
9919;DHT22;4998;51.024;13.828;2023-03-21T15:11:49;19.40;68.90
9919;DHT22;4998;51.024;13.828;2023-03-21T15:14:18;19.40;68.80
9919;DHT22;4998;51.024;13.828;2023-03-21T15:16:46;19.30;68.80
9919;DHT22;4998;51.024;13.828;2023-03-21T15:19:16;19.30;68.80
9919;DHT22;4998;51.024;13.828;2023-03-21T15:21:47;19.30;68.80
9919;DHT22;4998;51.024;13.828;2023-03-21T15:24:20;19.20;68.70
9919;DHT22;4998;51.024;13.828;2023-03-21T15:26:49;19.20;68.90
9919;DHT22;4998;51.024;13.828;2023-03-21T15:29:16;19.20;69.10
9919;DHT22;4998;51.024;13.828;2023-03-21T15:31:46;19.20;69.10
9919;DHT22;4998;51.024;13.828;2023-03-21T15:34:19;19.20;69.00
9919;DHT22;4998;51.024;13.828;2023-03-21T15:36:49;19.20;69.00
9919;DHT22;4998;51.024;13.828;2023-03-21T15:39:21;19.10;68.90
9919;DHT22;4998;51.024;13.828;2023-03-21T15:41:59;19.20;69.00
9919;DHT22;4998;51.024;13.828;2023-03-21T15:44:27;19.20;68.80
9919;DHT22;4998;51.024;13.828;2023-03-21T15:46:54;19.10;69.00
9919;DHT22;4998;51.024;13.828;2023-03-21T15:49:26;19.10;70.00
9919;DHT22;4998;51.024;13.828;2023-03-21T15:51:58;19.10;69.10
9919;DHT22;4998;51.024;13.828;2023-03-21T15:54:29;19.10;69.00
9919;DHT22;4998;51.024;13.828;2023-03-21T15:56:58;19.10;69.10
9919;DHT22;4998;51.024;13.828;2023-03-21T15:59:32;19.10;69.10
9919;DHT22;4998;51.024;13.828;2023-03-21T16:02:02;19.10;69.20
9919;DHT22;4998;51.024;13.828;2023-03-21T16:04:29;19.10;69.20
9919;DHT22;4998;51.024;13.828;2023-03-21T16:07:00;19.10;69.20
9919;DHT22;4998;51.024;13.828;2023-03-21T16:09:37;19.10;68.90
9919;DHT22;4998;51.024;13.828;2023-03-21T16:12:09;19.10;68.90
9919;DHT22;4998;51.024;13.828;2023-03-21T16:14:37;19.10;68.90
9919;DHT22;4998;51.024;13.828;2023-03-21T16:17:21;19.10;69.00
9919;DHT22;4998;51.024;13.828;2023-03-21T16:19:52;19.00;68.70